createdAt,value
2023-01-29T00:00:12.662Z,12.88
2023-01-29T00:02:39.902Z,13.73
2023-01-29T00:05:25.829Z,14.70
2023-01-29T00:07:54.822Z,15.68
2023-01-29T00:10:22.291Z,15.75
2023-01-29T00:12:49.642Z,17.83
2023-01-29T00:15:17.559Z,12.77
2023-01-29T00:17:45.020Z,16.60
2023-01-29T00:20:12.704Z,16.77
2023-01-29T00:22:40.445Z,19.25
2023-01-29T00:25:08.398Z,17.52
2023-01-29T00:27:35.675Z,19.38
2023-01-29T00:30:12.792Z,18.17
2023-01-29T00:32:40.749Z,16.35
2023-01-29T00:35:09.406Z,17.08
2023-01-29T00:37:36.685Z,16.58
2023-01-29T00:40:05.414Z,18.13
2023-01-29T00:42:58.852Z,15.05
2023-01-29T00:45:26.099Z,17.98
2023-01-29T00:47:53.398Z,18.92
2023-01-29T00:50:21.661Z,17.48
2023-01-29T00:52:52.790Z,15.38
2023-01-29T00:55:20.520Z,16.75
2023-01-29T00:57:48.167Z,17.13
2023-01-29T01:00:18.406Z,17.55
2023-01-29T01:03:04.882Z,18.80
2023-01-29T01:05:32.422Z,17.52
2023-01-29T01:08:00.194Z,16.73
2023-01-29T01:10:31.233Z,16.63
2023-01-29T01:13:04.215Z,17.83
2023-01-29T01:15:35.470Z,16.65
2023-01-29T01:18:04.593Z,18.75
2023-01-29T01:20:35.199Z,19.58
2023-01-29T01:23:03.953Z,18.38
2023-01-29T01:25:31.457Z,19.00
2023-01-29T01:30:27.266Z,17.67
2023-01-29T01:32:54.565Z,18.35
2023-01-29T01:35:21.850Z,19.02
2023-01-29T01:37:50.106Z,19.00
2023-01-29T01:40:23.464Z,19.17
2023-01-29T01:42:54.501Z,19.80
2023-01-29T01:45:31.461Z,18.65
2023-01-29T01:48:09.105Z,19.75
2023-01-29T01:50:41.579Z,18.63
2023-01-29T01:53:18.992Z,18.35
2023-01-29T01:55:52.612Z,18.33
2023-01-29T01:58:29.945Z,21.02
2023-01-29T02:00:57.883Z,17.42
2023-01-29T02:03:49.491Z,18.63
2023-01-29T02:06:35.852Z,19.00
2023-01-29T02:09:27.430Z,19.55
2023-01-29T02:11:55.484Z,19.30
2023-01-29T02:14:23.226Z,20.17
2023-01-29T02:16:50.756Z,20.00
2023-01-29T02:19:47.306Z,20.48
2023-01-29T02:22:28.302Z,18.40
2023-01-29T02:25:34.631Z,20.77
2023-01-29T02:28:32.388Z,19.40
2023-01-29T02:31:10.206Z,18.58
2023-01-29T02:33:55.998Z,18.90
2023-01-29T02:36:51.295Z,19.80
2023-01-29T02:39:41.682Z,21.30
2023-01-29T02:42:31.157Z,19.02
2023-01-29T02:45:12.740Z,19.63
2023-01-29T02:47:42.888Z,15.63
2023-01-29T02:50:17.277Z,19.25
2023-01-29T02:52:59.793Z,17.67
2023-01-29T02:55:56.592Z,21.85
2023-01-29T02:58:36.173Z,16.70
2023-01-29T03:01:35.807Z,17.10
2023-01-29T03:04:12.142Z,20.77
2023-01-29T03:06:45.036Z,16.83
2023-01-29T03:09:35.932Z,20.58
2023-01-29T03:12:29.049Z,24.25
2023-01-29T03:15:13.141Z,18.42
2023-01-29T03:17:55.585Z,22.25
2023-01-29T03:20:48.203Z,21.67
2023-01-29T03:23:27.078Z,21.38
2023-01-29T03:26:17.971Z,21.83
2023-01-29T03:29:06.462Z,22.10
2023-01-29T03:31:55.635Z,17.73
2023-01-29T03:34:38.859Z,20.15
2023-01-29T03:37:15.343Z,16.58
2023-01-29T03:39:42.841Z,19.77
2023-01-29T03:42:30.835Z,21.73
2023-01-29T03:45:26.136Z,19.88
2023-01-29T03:48:14.987Z,21.15
2023-01-29T03:51:05.654Z,20.00
2023-01-29T03:53:43.879Z,20.92
2023-01-29T03:56:45.504Z,21.33
2023-01-29T03:59:18.854Z,21.70
2023-01-29T04:02:34.549Z,20.42
2023-01-29T04:05:14.937Z,19.67
2023-01-29T04:08:02.608Z,20.20
2023-01-29T04:10:31.307Z,18.90
2023-01-29T04:13:09.157Z,20.65
2023-01-29T04:15:44.006Z,17.88
2023-01-29T04:18:11.795Z,21.52
2023-01-29T04:21:01.738Z,22.05
2023-01-29T04:23:29.616Z,22.52
2023-01-29T04:25:59.769Z,17.75
2023-01-29T04:28:53.914Z,22.70
2023-01-29T04:31:25.044Z,19.88
2023-01-29T04:34:10.471Z,18.83
2023-01-29T04:36:54.258Z,20.55
2023-01-29T04:39:27.527Z,19.88
2023-01-29T04:42:03.842Z,20.38
2023-01-29T04:44:44.685Z,23.83
2023-01-29T04:47:36.756Z,20.95
2023-01-29T04:50:48.381Z,19.15
2023-01-29T04:53:40.890Z,20.55
2023-01-29T04:56:20.711Z,22.02
2023-01-29T04:58:55.439Z,20.58
2023-01-29T05:01:25.829Z,19.48
2023-01-29T05:03:55.209Z,19.08
2023-01-29T05:06:24.767Z,19.88
2023-01-29T05:08:53.669Z,18.65
2023-01-29T05:11:21.527Z,20.42
2023-01-29T05:13:49.463Z,20.17
2023-01-29T05:16:25.822Z,17.30
2023-01-29T05:18:54.112Z,20.33
2023-01-29T05:21:23.335Z,19.27
2023-01-29T05:24:10.295Z,17.23
2023-01-29T05:26:56.445Z,19.63
2023-01-29T05:29:23.816Z,21.25
2023-01-29T05:31:51.045Z,18.65
2023-01-29T05:34:18.386Z,20.23
2023-01-29T05:36:45.870Z,20.23
2023-01-29T05:39:13.355Z,18.02
2023-01-29T05:41:40.714Z,19.65
2023-01-29T05:44:09.457Z,17.45
2023-01-29T05:46:37.847Z,18.77
2023-01-29T05:49:05.722Z,18.33
2023-01-29T05:51:32.959Z,19.13
2023-01-29T05:54:00.252Z,18.27
2023-01-29T05:56:27.611Z,16.90
2023-01-29T05:58:55.457Z,17.95
2023-01-29T06:01:25.147Z,19.73
2023-01-29T06:03:52.449Z,17.15
2023-01-29T06:06:19.838Z,19.63
2023-01-29T06:08:47.165Z,18.42
2023-01-29T06:11:16.369Z,18.65
2023-01-29T06:13:43.991Z,16.88
2023-01-29T06:16:13.394Z,15.20
2023-01-29T06:18:41.601Z,16.35
2023-01-29T06:21:12.435Z,17.35
2023-01-29T06:23:40.588Z,16.33
2023-01-29T06:26:11.448Z,12.93
2023-01-29T06:28:38.906Z,12.13
2023-01-29T06:31:37.462Z,11.75
2023-01-29T06:33:55.385Z,14.45
2023-01-29T06:36:22.626Z,12.52
2023-01-29T06:38:49.914Z,13.95
2023-01-29T06:41:19.674Z,12.68
2023-01-29T06:43:47.779Z,11.98
2023-01-29T06:46:15.037Z,15.45
2023-01-29T06:48:42.669Z,9.55
2023-01-29T06:51:11.059Z,10.10
2023-01-29T06:53:39.819Z,9.07
2023-01-29T06:56:07.808Z,12.32
2023-01-29T06:58:39.041Z,12.70
2023-01-29T07:01:09.040Z,12.20
2023-01-29T07:03:36.967Z,13.32
2023-01-29T07:06:05.217Z,12.27
2023-01-29T07:08:35.746Z,12.52
2023-01-29T07:11:04.591Z,11.10
2023-01-29T07:13:31.902Z,11.05
2023-01-29T07:16:03.747Z,11.90
2023-01-29T07:18:31.570Z,10.73
2023-01-29T07:20:58.993Z,8.32
2023-01-29T07:23:26.221Z,9.10
2023-01-29T07:25:53.515Z,8.57
2023-01-29T07:28:20.844Z,10.50
2023-01-29T07:30:48.159Z,7.07
2023-01-29T07:33:15.561Z,9.30
2023-01-29T07:35:44.287Z,8.27
2023-01-29T07:38:11.826Z,8.48
2023-01-29T07:40:39.865Z,9.02
2023-01-29T07:43:09.303Z,8.05
2023-01-29T07:45:38.709Z,6.80
2023-01-29T07:48:07.302Z,8.60
2023-01-29T07:50:35.600Z,8.07
2023-01-29T07:53:03.195Z,6.15
2023-01-29T07:55:31.492Z,5.68
2023-01-29T07:58:01.536Z,7.55
2023-01-29T08:00:30.292Z,7.60
2023-01-29T08:03:10.781Z,8.32
2023-01-29T08:05:38.198Z,7.10
2023-01-29T08:08:07.679Z,7.30
2023-01-29T08:10:36.664Z,5.75
2023-01-29T08:13:05.306Z,7.47
2023-01-29T08:15:33.143Z,7.78
2023-01-29T08:18:01.967Z,7.35
2023-01-29T08:20:29.658Z,7.32
2023-01-29T08:23:05.289Z,8.27
2023-01-29T08:25:33.721Z,6.82
2023-01-29T08:28:01.658Z,7.75
2023-01-29T08:30:31.943Z,8.02
2023-01-29T08:32:59.375Z,6.43
2023-01-29T08:35:27.109Z,9.45
2023-01-29T08:37:59.681Z,5.47
2023-01-29T08:40:32.511Z,7.07
2023-01-29T08:43:07.672Z,7.22
2023-01-29T08:45:38.298Z,5.53
2023-01-29T08:48:05.795Z,8.80
2023-01-29T08:50:34.927Z,5.38
2023-01-29T08:53:07.623Z,7.93
2023-01-29T08:55:39.542Z,6.78
2023-01-29T08:58:08.901Z,9.32
2023-01-29T09:00:36.543Z,9.38
2023-01-29T09:03:03.940Z,9.00
2023-01-29T09:05:31.226Z,10.30
2023-01-29T09:07:58.913Z,9.35
2023-01-29T09:10:26.786Z,7.03
2023-01-29T09:12:54.098Z,5.10
2023-01-29T09:15:21.748Z,8.25
2023-01-29T09:17:51.762Z,5.57
2023-01-29T09:20:19.889Z,5.70
2023-01-29T09:22:47.810Z,9.73
2023-01-29T09:25:15.621Z,6.40
2023-01-29T09:27:43.063Z,7.15
2023-01-29T09:30:11.142Z,7.25
2023-01-29T09:32:54.676Z,6.18
2023-01-29T09:35:23.357Z,5.88
2023-01-29T09:37:51.619Z,6.82
2023-01-29T09:40:41.818Z,6.82
2023-01-29T09:43:18.339Z,7.30
2023-01-29T09:46:02.997Z,6.10
2023-01-29T09:48:32.639Z,3.92
2023-01-29T09:51:04.974Z,5.22
2023-01-29T09:53:45.968Z,7.78
2023-01-29T09:56:18.873Z,7.45
2023-01-29T09:58:46.504Z,7.90
2023-01-29T10:01:53.369Z,8.48
2023-01-29T10:04:39.466Z,8.43
2023-01-29T10:07:31.296Z,5.20
2023-01-29T10:10:12.119Z,9.60
2023-01-29T10:12:54.491Z,7.70
2023-01-29T10:15:40.473Z,9.15
2023-01-29T10:18:32.439Z,5.38
2023-01-29T10:21:19.931Z,8.63
2023-01-29T10:24:15.095Z,6.40
2023-01-29T10:26:42.517Z,8.23
2023-01-29T10:29:18.249Z,6.30
2023-01-29T10:31:49.535Z,7.57
2023-01-29T10:34:36.526Z,5.72
2023-01-29T10:37:18.469Z,6.63
2023-01-29T10:39:46.218Z,9.02
2023-01-29T10:42:13.471Z,9.13
2023-01-29T10:45:08.055Z,7.95
2023-01-29T10:48:07.622Z,6.53
2023-01-29T10:50:44.037Z,7.43
2023-01-29T10:53:24.885Z,9.63
2023-01-29T10:56:21.899Z,7.70
2023-01-29T10:58:56.769Z,5.68
2023-01-29T11:01:24.291Z,8.98
2023-01-29T11:04:13.009Z,9.07
2023-01-29T11:06:40.309Z,7.30
2023-01-29T11:12:21.698Z,9.35
2023-01-29T11:15:14.330Z,4.43
2023-01-29T11:18:20.940Z,9.38
2023-01-29T11:21:01.681Z,9.07
2023-01-29T11:23:32.246Z,8.60
2023-01-29T11:26:00.837Z,9.35
2023-01-29T11:28:45.551Z,8.32
2023-01-29T11:31:35.640Z,9.35
2023-01-29T11:34:06.336Z,8.80
2023-01-29T11:36:38.665Z,9.80
2023-01-29T11:39:15.384Z,9.63
2023-01-29T11:41:44.514Z,9.05
2023-01-29T11:44:45.226Z,9.90
2023-01-29T11:47:20.159Z,7.75
2023-01-29T11:49:52.016Z,8.82
2023-01-29T11:52:23.769Z,8.80
2023-01-29T11:55:02.213Z,8.43
2023-01-29T11:57:38.777Z,7.35
2023-01-29T12:00:25.973Z,7.63
2023-01-29T12:03:06.655Z,7.78
2023-01-29T12:05:34.275Z,6.30
2023-01-29T12:08:02.568Z,5.70
2023-01-29T12:10:37.494Z,4.32
2023-01-29T12:13:10.916Z,5.15
2023-01-29T12:15:40.344Z,6.03
2023-01-29T12:18:30.487Z,4.05
2023-01-29T12:21:05.633Z,6.75
2023-01-29T12:24:02.264Z,4.60
2023-01-29T12:26:37.521Z,5.05
2023-01-29T12:29:15.489Z,5.30
2023-01-29T12:32:23.976Z,7.57
2023-01-29T12:35:01.634Z,7.68
2023-01-29T12:38:01.015Z,5.30
2023-01-29T12:40:47.147Z,4.97
2023-01-29T12:43:22.308Z,6.97
2023-01-29T12:45:58.001Z,5.53
2023-01-29T12:48:34.683Z,6.20
2023-01-29T12:51:14.201Z,4.07
2023-01-29T12:54:19.967Z,4.53
2023-01-29T12:56:51.555Z,4.78
2023-01-29T12:59:21.556Z,2.78
2023-01-29T13:01:59.829Z,4.10
2023-01-29T13:04:37.952Z,4.07
2023-01-29T13:07:18.854Z,5.43
2023-01-29T13:09:52.112Z,4.57
2023-01-29T13:12:22.629Z,5.95
2023-01-29T13:14:57.723Z,5.45
2023-01-29T13:17:54.704Z,5.97
2023-01-29T13:20:29.134Z,2.80
2023-01-29T13:23:05.948Z,4.93
2023-01-29T13:25:33.214Z,5.85
2023-01-29T13:28:00.775Z,5.05
2023-01-29T13:30:33.514Z,4.82
2023-01-29T13:33:10.699Z,4.20
2023-01-29T13:35:42.103Z,4.55
2023-01-29T13:38:38.896Z,3.10
2023-01-29T13:41:10.313Z,4.38
2023-01-29T13:43:40.704Z,4.40
2023-01-29T13:46:19.132Z,4.03
2023-01-29T13:48:49.650Z,3.78
2023-01-29T13:51:22.746Z,3.20
2023-01-29T13:53:57.842Z,2.92
2023-01-29T13:56:32.755Z,5.32
2023-01-29T13:59:01.000Z,4.68
2023-01-29T14:01:46.914Z,7.50
2023-01-29T14:04:25.545Z,3.85
2023-01-29T14:06:57.473Z,2.03
2023-01-29T14:09:47.948Z,3.47
2023-01-29T14:12:21.339Z,2.70
2023-01-29T14:14:48.674Z,2.65
2023-01-29T14:17:18.379Z,2.28
2023-01-29T14:20:01.576Z,2.95
2023-01-29T14:22:30.661Z,2.03
2023-01-29T14:25:02.313Z,2.60
2023-01-29T14:27:30.211Z,2.47
2023-01-29T14:30:10.143Z,2.28
2023-01-29T14:32:40.475Z,3.35
2023-01-29T14:35:22.415Z,3.60
2023-01-29T14:37:56.461Z,3.10
2023-01-29T14:40:27.132Z,2.58
2023-01-29T14:42:57.490Z,3.28
2023-01-29T14:45:34.766Z,3.15
2023-01-29T14:48:11.150Z,4.28
2023-01-29T14:50:50.315Z,5.43
2023-01-29T14:53:50.045Z,3.75
2023-01-29T14:56:40.774Z,6.22
2023-01-29T14:59:25.000Z,3.78
2023-01-29T15:01:55.864Z,3.10
2023-01-29T15:04:28.676Z,4.97
2023-01-29T15:07:18.298Z,4.50
2023-01-29T15:09:55.471Z,3.38
2023-01-29T15:12:25.713Z,3.10
2023-01-29T15:15:26.131Z,2.90
2023-01-29T15:18:19.316Z,1.70
2023-01-29T15:20:46.999Z,1.92
2023-01-29T15:23:34.526Z,2.67
2023-01-29T15:26:04.569Z,4.05
2023-01-29T15:28:34.737Z,2.63
2023-01-29T15:31:04.714Z,2.88
2023-01-29T15:33:33.675Z,2.85
2023-01-29T15:36:07.389Z,3.30
2023-01-29T15:38:35.931Z,3.80
2023-01-29T15:41:17.095Z,2.83
2023-01-29T15:43:49.969Z,3.67
2023-01-29T15:46:30.058Z,3.42
2023-01-29T15:49:00.776Z,2.53
2023-01-29T15:51:29.011Z,7.00
2023-01-29T15:54:11.424Z,4.80
2023-01-29T15:56:43.345Z,3.17
2023-01-29T15:59:18.932Z,3.53
2023-01-29T16:01:46.661Z,2.97
2023-01-29T16:04:20.855Z,2.92
2023-01-29T16:06:49.845Z,4.68
2023-01-29T16:09:20.838Z,2.90
2023-01-29T16:11:50.439Z,2.72
2023-01-29T16:14:23.043Z,1.70
2023-01-29T16:16:50.573Z,3.53
2023-01-29T16:19:23.692Z,3.75
2023-01-29T16:21:57.679Z,3.95
2023-01-29T16:24:25.877Z,2.80
2023-01-29T16:27:00.110Z,2.60
2023-01-29T16:29:32.675Z,5.05
2023-01-29T16:32:02.604Z,3.83
2023-01-29T16:34:37.665Z,4.55
2023-01-29T16:37:08.366Z,3.28
2023-01-29T16:39:43.889Z,3.65
2023-01-29T16:42:17.391Z,3.10
2023-01-29T16:44:52.414Z,4.35
2023-01-29T16:47:31.697Z,4.03
2023-01-29T16:50:00.968Z,4.18
2023-01-29T16:52:31.539Z,4.38
2023-01-29T16:55:02.123Z,4.10
2023-01-29T16:57:32.991Z,5.40
2023-01-29T17:00:03.236Z,4.22
2023-01-29T17:02:38.389Z,4.43
2023-01-29T17:05:09.659Z,4.15
2023-01-29T17:07:37.935Z,4.30
2023-01-29T17:10:07.151Z,3.70
2023-01-29T17:12:36.253Z,3.45
2023-01-29T17:15:26.077Z,3.83
2023-01-29T17:17:53.405Z,3.70
2023-01-29T17:20:20.907Z,3.65
2023-01-29T17:22:48.145Z,2.67
2023-01-29T17:25:17.091Z,4.10
2023-01-29T17:27:51.388Z,4.32
2023-01-29T17:30:22.406Z,3.45
2023-01-29T17:32:49.803Z,4.32
2023-01-29T17:35:17.765Z,2.30
2023-01-29T17:37:45.329Z,3.33
2023-01-29T17:40:39.298Z,2.33
2023-01-29T17:43:07.531Z,2.63
2023-01-29T17:45:34.839Z,4.53
2023-01-29T17:48:02.199Z,2.08
2023-01-29T17:50:32.000Z,4.32
2023-01-29T17:52:59.475Z,2.35
2023-01-29T17:55:26.768Z,2.58
2023-01-29T17:57:54.020Z,3.33
2023-01-29T18:00:23.809Z,1.85
2023-01-29T18:02:51.689Z,2.88
2023-01-29T18:05:19.438Z,2.83
2023-01-29T18:07:47.844Z,2.58
2023-01-29T18:10:20.955Z,2.90
2023-01-29T18:12:48.366Z,2.22
2023-01-29T18:15:16.242Z,2.42
2023-01-29T18:17:44.107Z,3.10
2023-01-29T18:20:23.401Z,2.20
2023-01-29T18:22:50.989Z,2.10
2023-01-29T18:25:19.100Z,2.03
2023-01-29T18:27:46.771Z,2.58
2023-01-29T18:30:14.786Z,2.35
2023-01-29T18:32:42.034Z,2.38
2023-01-29T18:35:09.763Z,1.60
2023-01-29T18:37:37.070Z,2.38
2023-01-29T18:40:05.806Z,2.40
2023-01-29T18:42:33.597Z,2.75
2023-01-29T18:45:00.985Z,2.83
2023-01-29T18:47:28.227Z,1.50
2023-01-29T18:49:55.493Z,1.67
2023-01-29T18:52:22.779Z,2.17
2023-01-29T18:54:50.068Z,2.10
2023-01-29T18:58:27.339Z,1.85
2023-01-29T19:00:05.252Z,1.52
2023-01-29T19:02:32.842Z,2.20
2023-01-29T19:05:00.185Z,8.25
2023-01-29T19:07:27.596Z,7.63
2023-01-29T19:09:54.877Z,6.78
2023-01-29T19:12:22.931Z,5.88
2023-01-29T19:14:50.249Z,3.17
2023-01-29T19:17:17.577Z,3.47
2023-01-29T19:19:44.837Z,2.60
2023-01-29T19:22:12.107Z,3.78
2023-01-29T19:24:39.371Z,3.03
2023-01-29T19:27:06.700Z,2.92
2023-01-29T19:29:34.303Z,2.55
2023-01-29T19:32:01.813Z,3.10
2023-01-29T19:34:29.134Z,2.78
2023-01-29T19:36:56.393Z,2.33
2023-01-29T19:39:23.791Z,2.60
2023-01-29T19:41:51.155Z,1.52
2023-01-29T19:44:18.376Z,3.40
2023-01-29T19:46:46.815Z,3.05
2023-01-29T19:49:14.190Z,2.40
2023-01-29T19:51:41.552Z,2.25
2023-01-29T19:54:09.573Z,3.20
2023-01-29T19:56:37.187Z,2.70
2023-01-29T19:59:07.170Z,2.25
2023-01-29T20:01:34.713Z,2.85
2023-01-29T20:04:02.075Z,4.70
2023-01-29T20:06:32.918Z,3.95
2023-01-29T20:09:02.823Z,3.63
2023-01-29T20:11:30.805Z,2.72
2023-01-29T20:13:58.754Z,2.72
2023-01-29T20:16:26.689Z,3.47
2023-01-29T20:18:54.039Z,2.05
2023-01-29T20:21:22.085Z,3.40
2023-01-29T20:23:50.978Z,2.75
2023-01-29T20:26:19.693Z,2.72
2023-01-29T20:28:47.853Z,2.47
2023-01-29T20:31:16.225Z,3.50
2023-01-29T20:33:44.349Z,3.58
2023-01-29T20:36:12.811Z,3.97
2023-01-29T20:38:40.254Z,2.55
2023-01-29T20:41:19.201Z,2.05
2023-01-29T20:43:47.378Z,2.72
2023-01-29T20:46:14.927Z,2.97
2023-01-29T20:48:42.358Z,2.00
2023-01-29T20:51:16.166Z,2.92
2023-01-29T20:53:48.087Z,2.80
2023-01-29T20:56:17.270Z,3.20
2023-01-29T20:58:46.577Z,8.30
2023-01-29T21:01:16.686Z,3.50
2023-01-29T21:03:44.220Z,2.22
2023-01-29T21:06:12.144Z,2.40
2023-01-29T21:08:40.421Z,1.95
2023-01-29T21:11:09.301Z,4.28
2023-01-29T21:13:37.261Z,3.83
2023-01-29T21:16:04.923Z,2.90
2023-01-29T21:18:32.316Z,3.22
2023-01-29T21:20:59.687Z,2.65
2023-01-29T21:23:27.022Z,3.53
2023-01-29T21:25:54.392Z,2.60
2023-01-29T21:28:21.798Z,3.08
2023-01-29T21:30:49.175Z,3.25
2023-01-29T21:33:16.865Z,2.53
2023-01-29T21:35:44.061Z,2.90
2023-01-29T21:38:11.311Z,1.90
2023-01-29T21:40:38.567Z,2.75
2023-01-29T21:43:11.932Z,3.65
2023-01-29T21:45:40.215Z,3.10
2023-01-29T21:48:09.631Z,3.47
2023-01-29T21:50:37.017Z,3.63
2023-01-29T21:53:04.421Z,3.45
2023-01-29T21:55:32.706Z,3.85
2023-01-29T21:58:00.392Z,2.67
2023-01-29T22:00:28.029Z,4.35
2023-01-29T22:02:55.375Z,3.80
2023-01-29T22:05:23.171Z,4.38
2023-01-29T22:07:50.750Z,2.47
2023-01-29T22:10:19.761Z,3.20
2023-01-29T22:12:48.231Z,3.35
2023-01-29T22:15:15.639Z,4.55
2023-01-29T22:17:43.835Z,3.80
2023-01-29T22:20:13.066Z,2.65
2023-01-29T22:22:40.493Z,5.03
2023-01-29T22:25:08.360Z,4.03
2023-01-29T22:27:35.652Z,4.32
2023-01-29T22:30:03.754Z,4.43
2023-01-29T22:32:32.711Z,3.78
2023-01-29T22:35:00.101Z,2.63
2023-01-29T22:37:27.525Z,2.92
2023-01-29T22:39:54.830Z,3.95
2023-01-29T22:42:22.091Z,4.38
2023-01-29T22:44:49.801Z,3.67
2023-01-29T22:47:16.997Z,4.40
2023-01-29T22:49:45.682Z,4.82
2023-01-29T22:52:13.710Z,3.05
2023-01-29T22:54:42.995Z,3.58
2023-01-29T22:57:12.343Z,3.38
2023-01-29T22:59:40.064Z,2.38
2023-01-29T23:02:08.056Z,2.88
2023-01-29T23:04:35.490Z,2.35
2023-01-29T23:07:03.084Z,3.65
2023-01-29T23:09:30.470Z,3.45
2023-01-29T23:11:57.823Z,4.22
2023-01-29T23:14:25.085Z,3.33
2023-01-29T23:16:52.372Z,3.85
2023-01-29T23:19:19.756Z,3.10
2023-01-29T23:21:47.152Z,1.83
2023-01-29T23:24:14.401Z,4.72
2023-01-29T23:27:00.170Z,3.63
2023-01-29T23:29:27.417Z,3.85
2023-01-29T23:31:54.662Z,4.82
2023-01-29T23:34:21.972Z,5.60
2023-01-29T23:36:49.269Z,3.42
2023-01-29T23:39:16.747Z,4.25
2023-01-29T23:41:44.664Z,3.22
2023-01-29T23:44:11.793Z,4.90
2023-01-29T23:46:39.048Z,3.00
2023-01-29T23:49:06.693Z,3.90
2023-01-29T23:51:34.239Z,4.45
2023-01-29T23:54:01.475Z,4.75
2023-01-29T23:56:28.770Z,3.70
2023-01-29T23:58:57.086Z,4.57
